Time;durP1;ratioP1;P1;durP2;ratioP2;P2;SDS_P1;SDS_P2;PMS_P1;PMS_P2;Temp;Humidity;BMP_temperature;BMP_pressure;BME280_temperature;BME280_humidity;BME280_pressure;Samples;Min_cycle;Max_cycle;Signal;HPM_P1;HPM_P2
2021/09/10 00:01:13;;;;;;;5.13;2.80;;;20.40;99.90;;;;;;5052383;28;20199;-69
2021/09/10 00:03:42;;;;;;;4.28;3.10;;;20.50;99.90;;;;;;5052955;28;20732;-69
2021/09/10 00:06:09;;;;;;;3.33;2.72;;;20.40;99.90;;;;;;5052709;28;20576;-69
2021/09/10 00:08:35;;;;;;;5.18;2.97;;;20.40;99.90;;;;;;5052138;28;20199;-68
2021/09/10 00:11:02;;;;;;;6.07;3.17;;;20.30;99.90;;;;;;5051328;28;20591;-69
2021/09/10 00:13:29;;;;;;;4.45;2.78;;;20.30;99.90;;;;;;5051796;28;20683;-69
2021/09/10 00:15:56;;;;;;;3.25;2.75;;;20.30;99.90;;;;;;5052200;28;20198;-69
2021/09/10 00:18:23;;;;;;;5.32;2.85;;;20.30;99.90;;;;;;5052129;28;20696;-69
2021/09/10 00:20:51;;;;;;;5.45;3.70;;;20.20;99.90;;;;;;5052185;28;20280;-69
2021/09/10 00:23:18;;;;;;;6.07;3.35;;;20.20;99.90;;;;;;5052444;28;20570;-69
2021/09/10 00:25:45;;;;;;;5.63;3.47;;;20.20;99.90;;;;;;5051741;28;20514;-69
2021/09/10 00:28:12;;;;;;;5.03;3.10;;;20.10;99.90;;;;;;5052497;28;20199;-69
2021/09/10 00:30:39;;;;;;;6.47;3.50;;;20.10;99.90;;;;;;5050197;28;20205;-69
2021/09/10 00:33:06;;;;;;;5.20;3.35;;;19.90;99.90;;;;;;5045762;28;20206;-69
2021/09/10 00:35:32;;;;;;;6.07;4.00;;;19.90;99.90;;;;;;5039340;28;20208;-69
2021/09/10 00:38:01;;;;;;;3.38;3.05;;;19.80;99.90;;;;;;5050257;28;20225;-69
2021/09/10 00:40:28;;;;;;;5.00;3.75;;;19.80;99.90;;;;;;5041386;28;20202;-69
2021/09/10 00:42:55;;;;;;;5.82;3.67;;;19.60;99.90;;;;;;5042913;28;20194;-69
2021/09/10 00:45:21;;;;;;;4.95;3.58;;;19.60;99.90;;;;;;5038564;28;20200;-69
2021/09/10 00:47:49;;;;;;;3.95;3.55;;;19.60;99.90;;;;;;5042287;28;20217;-69
2021/09/10 00:50:16;;;;;;;6.07;3.40;;;19.50;99.90;;;;;;5052494;28;20214;-69
2021/09/10 00:52:44;;;;;;;6.38;3.95;;;19.50;99.90;;;;;;5053257;28;20675;-69
2021/09/10 00:55:12;;;;;;;3.65;3.25;;;19.30;99.90;;;;;;5052813;28;20206;-69
2021/09/10 00:57:39;;;;;;;6.03;3.83;;;19.30;99.90;;;;;;5052224;28;20245;-69
2021/09/10 01:00:07;;;;;;;4.28;3.33;;;19.30;99.90;;;;;;5054422;28;20210;-69
2021/09/10 01:02:35;;;;;;;3.53;3.22;;;19.20;99.90;;;;;;5052479;28;20207;-69
2021/09/10 01:05:03;;;;;;;6.25;3.70;;;19.20;99.90;;;;;;5050090;28;20199;-69
2021/09/10 01:07:30;;;;;;;5.30;3.53;;;19.10;99.90;;;;;;5057698;28;20663;-69
2021/09/10 01:09:58;;;;;;;5.70;3.67;;;19.10;99.90;;;;;;5056677;28;20205;-69
2021/09/10 01:12:27;;;;;;;7.22;4.10;;;19.00;99.90;;;;;;5051772;28;20205;-69
2021/09/10 01:14:54;;;;;;;4.63;3.97;;;19.10;99.90;;;;;;5052473;28;20213;-69
2021/09/10 01:17:22;;;;;;;7.40;4.78;;;19.10;99.90;;;;;;5052785;28;20227;-69
2021/09/10 01:19:49;;;;;;;6.03;4.00;;;19.00;99.90;;;;;;5051828;28;20207;-69
2021/09/10 01:22:15;;;;;;;7.70;4.05;;;19.10;99.90;;;;;;5052084;28;20203;-69
2021/09/10 01:25:06;;;;;;;4.85;3.83;;;19.00;99.90;;;;;;5052316;28;20207;-69
2021/09/10 01:27:33;;;;;;;7.75;3.58;;;19.00;99.90;;;;;;5051136;28;20199;-69
2021/09/10 01:30:00;;;;;;;5.70;4.05;;;19.00;99.90;;;;;;5051266;28;20404;-69
2021/09/10 01:32:27;;;;;;;7.15;4.40;;;19.00;99.90;;;;;;5052013;28;20201;-69
2021/09/10 01:34:54;;;;;;;5.35;3.88;;;19.10;99.90;;;;;;5051588;28;20217;-69
2021/09/10 01:37:21;;;;;;;6.45;4.32;;;19.00;99.90;;;;;;5069047;28;20226;-69
2021/09/10 01:39:47;;;;;;;6.43;4.57;;;19.00;99.90;;;;;;5058143;28;20190;-69
2021/09/10 01:42:16;;;;;;;7.07;4.38;;;19.00;99.90;;;;;;5051770;28;20198;-69
2021/09/10 01:44:43;;;;;;;8.23;5.05;;;19.10;99.90;;;;;;5066118;28;20214;-69
2021/09/10 01:47:10;;;;;;;8.95;5.15;;;19.10;99.90;;;;;;5051816;28;20211;-69
2021/09/10 01:49:37;;;;;;;10.82;6.22;;;19.10;99.90;;;;;;5050754;28;20225;-69
2021/09/10 01:52:04;;;;;;;6.72;4.82;;;19.10;99.90;;;;;;5051920;28;20210;-69
2021/09/10 01:54:31;;;;;;;8.52;5.15;;;19.00;99.90;;;;;;5051928;28;20681;-69
2021/09/10 01:56:58;;;;;;;8.13;5.35;;;18.90;99.90;;;;;;5051495;28;20239;-69
2021/09/10 01:59:26;;;;;;;8.00;5.75;;;18.90;99.90;;;;;;5050184;28;20217;-69
2021/09/10 02:01:53;;;;;;;8.55;5.50;;;18.90;99.90;;;;;;5050622;28;20203;-69
2021/09/10 02:04:21;;;;;;;6.07;5.13;;;18.90;99.90;;;;;;5052022;28;20207;-69
2021/09/10 02:06:48;;;;;;;9.10;5.80;;;18.90;99.90;;;;;;5050309;28;20728;-69
2021/09/10 02:09:16;;;;;;;7.70;5.75;;;18.90;99.90;;;;;;5050024;28;20191;-69
2021/09/10 02:11:43;;;;;;;11.40;5.80;;;18.90;99.90;;;;;;5043002;28;20432;-69
2021/09/10 02:14:10;;;;;;;11.45;5.68;;;19.00;99.90;;;;;;5046919;28;20704;-69
2021/09/10 02:16:39;;;;;;;6.75;5.30;;;19.10;99.90;;;;;;5049557;28;20225;-69
2021/09/10 02:19:06;;;;;;;5.80;4.93;;;19.00;99.90;;;;;;5048587;28;20674;-69
2021/09/10 02:21:33;;;;;;;5.75;4.95;;;19.00;99.90;;;;;;5056050;28;20203;-69
2021/09/10 02:24:00;;;;;;;6.50;5.43;;;19.00;99.90;;;;;;5062611;28;20223;-69
2021/09/10 02:26:28;;;;;;;8.98;5.18;;;19.10;99.90;;;;;;5042215;28;20309;-69
2021/09/10 02:28:55;;;;;;;6.72;4.75;;;18.90;99.90;;;;;;5050241;28;20207;-69
2021/09/10 02:31:22;;;;;;;7.75;5.32;;;19.00;99.90;;;;;;5049416;28;20206;-70
2021/09/10 02:33:51;;;;;;;10.05;5.38;;;18.90;99.90;;;;;;5051760;28;20656;-69
2021/09/10 02:36:18;;;;;;;6.40;5.13;;;18.80;99.90;;;;;;5050248;28;20607;-69
2021/09/10 02:38:45;;;;;;;6.03;5.10;;;18.70;99.90;;;;;;5057617;28;20228;-70
2021/09/10 02:41:11;;;;;;;7.78;5.85;;;18.80;99.90;;;;;;5051735;28;20293;-69
2021/09/10 02:43:38;;;;;;;8.77;5.95;;;18.90;99.90;;;;;;5060410;28;20563;-70
2021/09/10 02:46:05;;;;;;;8.82;5.70;;;19.00;99.90;;;;;;5045748;28;20206;-69
2021/09/10 02:48:32;;;;;;;7.72;5.88;;;19.00;99.90;;;;;;5050641;28;20611;-72
2021/09/10 02:51:00;;;;;;;10.52;6.38;;;19.00;99.90;;;;;;5060761;28;20206;-72
2021/09/10 02:53:27;;;;;;;9.38;6.75;;;19.00;99.90;;;;;;5061584;28;20194;-72
2021/09/10 02:55:56;;;;;;;10.52;6.55;;;19.10;99.90;;;;;;5057548;28;20207;-72
2021/09/10 02:58:23;;;;;;;8.25;6.20;;;19.10;99.90;;;;;;5045357;28;20306;-72
2021/09/10 03:00:49;;;;;;;11.25;6.53;;;18.90;99.90;;;;;;5047458;28;20573;-72
2021/09/10 03:03:16;;;;;;;19.30;7.82;;;18.90;99.90;;;;;;5049060;28;20207;-72
2021/09/10 03:05:43;;;;;;;12.80;7.47;;;18.80;99.90;;;;;;5050404;28;20671;-71
2021/09/10 03:08:11;;;;;;;16.30;7.35;;;18.70;99.90;;;;;;5049299;28;20209;-72
2021/09/10 03:10:38;;;;;;;9.75;7.53;;;18.70;99.90;;;;;;5048232;28;20199;-72
2021/09/10 03:13:06;;;;;;;11.82;7.78;;;18.70;99.90;;;;;;5058623;28;20202;-72
2021/09/10 03:15:33;;;;;;;9.07;7.28;;;18.70;99.90;;;;;;5050223;28;20657;-72
2021/09/10 03:18:00;;;;;;;11.57;7.13;;;18.70;99.90;;;;;;5056540;28;20227;-72
2021/09/10 03:20:27;;;;;;;14.68;8.43;;;18.70;99.90;;;;;;5049931;28;20203;-72
2021/09/10 03:22:54;;;;;;;11.05;8.55;;;18.70;99.90;;;;;;5053958;28;20202;-72
2021/09/10 03:25:22;;;;;;;12.38;8.60;;;18.70;99.90;;;;;;5054236;28;20538;-72
2021/09/10 03:27:49;;;;;;;15.55;8.63;;;18.70;99.90;;;;;;5050800;28;20293;-72
2021/09/10 03:30:16;;;;;;;14.15;8.30;;;18.80;99.90;;;;;;5057075;28;20203;-72
2021/09/10 03:32:43;;;;;;;13.27;9.75;;;18.90;99.90;;;;;;5053239;28;20211;-72
2021/09/10 03:35:10;;;;;;;14.30;8.90;;;18.80;99.90;;;;;;5062263;28;20209;-72
2021/09/10 03:37:37;;;;;;;18.75;9.88;;;18.80;99.90;;;;;;5060311;28;20653;-71
2021/09/10 03:40:06;;;;;;;14.25;9.35;;;18.90;99.90;;;;;;5062276;28;20211;-72
2021/09/10 03:42:35;;;;;;;24.65;16.25;;;18.80;99.90;;;;;;5055073;28;20251;-72
2021/09/10 03:45:02;;;;;;;18.80;13.50;;;18.90;99.90;;;;;;5053747;28;20653;-72
2021/09/10 03:47:29;;;;;;;14.98;11.35;;;18.80;99.90;;;;;;5051728;28;20671;-72
2021/09/10 03:49:55;;;;;;;16.17;9.23;;;18.80;99.90;;;;;;5051770;28;20225;-72
2021/09/10 03:52:22;;;;;;;11.90;8.75;;;18.70;99.90;;;;;;5054806;28;20197;-72
2021/09/10 03:54:49;;;;;;;11.52;8.57;;;18.80;99.90;;;;;;5058345;28;20194;-72
2021/09/10 03:57:16;;;;;;;13.70;8.65;;;18.80;99.90;;;;;;5060022;28;20195;-72
2021/09/10 03:59:44;;;;;;;12.13;8.02;;;18.80;99.90;;;;;;5053271;28;20223;-72
2021/09/10 04:02:11;;;;;;;10.63;8.20;;;18.80;99.90;;;;;;5050019;28;20638;-72
2021/09/10 04:04:38;;;;;;;12.60;9.10;;;18.70;99.90;;;;;;5044542;28;20206;-72
2021/09/10 04:07:05;;;;;;;12.45;8.60;;;18.70;99.90;;;;;;5051966;28;20207;-72
2021/09/10 04:09:31;;;;;;;16.45;9.68;;;18.70;99.90;;;;;;5049922;28;20285;-72
2021/09/10 04:11:58;;;;;;;11.63;8.02;;;18.70;99.90;;;;;;5059171;28;20294;-72
2021/09/10 04:14:25;;;;;;;13.23;8.70;;;18.70;99.90;;;;;;5056741;28;20665;-72
2021/09/10 04:16:53;;;;;;;11.07;8.60;;;18.70;99.90;;;;;;5048356;28;20206;-72
2021/09/10 04:19:20;;;;;;;12.27;9.07;;;18.70;99.90;;;;;;5050928;28;20225;-72
2021/09/10 04:21:47;;;;;;;10.38;8.80;;;18.80;99.90;;;;;;5052567;28;20550;-72
2021/09/10 04:24:17;;;;;;;12.88;8.73;;;18.80;99.90;;;;;;5052989;28;20203;-72
2021/09/10 04:26:44;;;;;;;12.57;8.55;;;18.80;99.90;;;;;;5052312;28;20675;-72
2021/09/10 04:29:11;;;;;;;11.35;8.57;;;18.80;99.90;;;;;;5051777;28;20570;-72
2021/09/10 04:31:38;;;;;;;12.00;8.48;;;18.70;99.90;;;;;;5051306;28;20227;-72
2021/09/10 04:34:06;;;;;;;10.82;8.63;;;18.70;99.90;;;;;;5048657;28;20743;-72
2021/09/10 04:36:33;;;;;;;12.55;8.98;;;18.80;99.90;;;;;;5052908;28;20645;-72
2021/09/10 04:39:00;;;;;;;21.40;15.10;;;18.70;99.90;;;;;;5054936;28;20580;-73
2021/09/10 04:41:26;;;;;;;13.30;9.35;;;18.70;99.90;;;;;;5049773;28;20195;-73
2021/09/10 04:43:53;;;;;;;13.02;9.50;;;18.70;99.90;;;;;;5050498;28;20212;-73
2021/09/10 04:46:20;;;;;;;13.02;9.43;;;18.70;99.90;;;;;;5041653;28;20942;-73
2021/09/10 04:48:47;;;;;;;14.40;9.15;;;18.70;99.90;;;;;;5050849;28;20199;-73
2021/09/10 04:51:15;;;;;;;10.52;8.48;;;18.80;99.90;;;;;;5046508;28;20207;-73
2021/09/10 04:53:42;;;;;;;12.57;9.15;;;18.80;99.90;;;;;;5056322;28;20202;-73
2021/09/10 04:56:09;;;;;;;12.50;9.05;;;18.80;99.90;;;;;;5053232;28;20739;-73
2021/09/10 04:58:36;;;;;;;15.30;10.02;;;18.70;99.90;;;;;;5051727;28;20229;-73
2021/09/10 05:01:03;;;;;;;10.93;8.27;;;18.70;99.90;;;;;;5043258;28;20209;-73
2021/09/10 05:03:31;;;;;;;12.13;8.93;;;18.70;99.90;;;;;;5042618;28;20745;-73
2021/09/10 05:05:58;;;;;;;11.07;8.55;;;18.60;99.90;;;;;;5048340;28;20217;-73
2021/09/10 05:08:26;;;;;;;12.68;8.88;;;18.60;99.90;;;;;;5047927;28;20228;-73
2021/09/10 05:10:53;;;;;;;11.68;8.68;;;18.70;99.90;;;;;;5055109;28;20652;-73
2021/09/10 05:13:20;;;;;;;12.32;9.90;;;18.80;99.90;;;;;;5050881;28;20198;-73
2021/09/10 05:15:47;;;;;;;14.95;9.55;;;18.70;99.90;;;;;;5053428;28;20206;-73
2021/09/10 05:18:14;;;;;;;12.23;9.32;;;18.70;99.90;;;;;;5043123;28;20291;-73
2021/09/10 05:20:41;;;;;;;14.52;8.90;;;18.70;99.90;;;;;;5054486;28;20203;-73
2021/09/10 05:23:07;;;;;;;11.45;8.88;;;18.80;99.90;;;;;;5046993;28;20206;-73
2021/09/10 05:25:36;;;;;;;13.25;9.82;;;18.90;99.90;;;;;;5045717;28;20206;-73
2021/09/10 05:28:03;;;;;;;16.38;10.02;;;18.90;99.90;;;;;;5044298;28;20196;-73
2021/09/10 05:30:29;;;;;;;14.65;9.73;;;18.90;99.90;;;;;;5047271;28;20199;-73
2021/09/10 05:32:56;;;;;;;11.43;9.13;;;18.90;99.90;;;;;;5046143;28;20717;-73
2021/09/10 05:35:23;;;;;;;13.77;9.05;;;19.00;99.90;;;;;;5048383;28;20199;-73
2021/09/10 05:37:50;;;;;;;15.55;9.82;;;18.90;99.90;;;;;;5047507;28;20203;-73
2021/09/10 05:40:17;;;;;;;14.88;10.63;;;18.90;99.90;;;;;;5044050;28;20226;-73
2021/09/10 05:42:47;;;;;;;16.80;11.35;;;18.90;99.90;;;;;;5049473;28;20574;-73
2021/09/10 05:45:14;;;;;;;16.05;10.73;;;18.90;99.90;;;;;;5048533;28;20207;-73
2021/09/10 05:47:40;;;;;;;13.07;9.90;;;18.90;99.90;;;;;;5055418;28;20575;-73
2021/09/10 05:50:08;;;;;;;14.35;9.80;;;18.90;99.90;;;;;;5046504;28;20210;-73
2021/09/10 05:52:35;;;;;;;13.30;9.52;;;18.90;99.90;;;;;;5050016;28;20199;-73
2021/09/10 05:55:02;;;;;;;15.05;10.20;;;19.00;99.90;;;;;;5050585;28;20226;-73
2021/09/10 05:57:29;;;;;;;13.48;10.20;;;19.00;99.90;;;;;;5047324;28;20205;-73
2021/09/10 05:59:57;;;;;;;13.52;9.73;;;19.00;99.90;;;;;;5044469;28;20226;-73
2021/09/10 06:02:24;;;;;;;11.43;9.73;;;19.00;99.90;;;;;;5043712;28;20638;-73
2021/09/10 06:04:51;;;;;;;15.77;10.00;;;19.00;99.90;;;;;;5047015;28;20658;-73
2021/09/10 06:07:18;;;;;;;14.57;9.77;;;19.10;99.90;;;;;;5039061;28;20295;-73
2021/09/10 06:09:45;;;;;;;12.52;9.60;;;19.00;99.90;;;;;;5035856;28;20222;-72
2021/09/10 06:12:11;;;;;;;13.60;10.27;;;19.10;99.90;;;;;;5048179;28;20234;-72
2021/09/10 06:14:38;;;;;;;13.13;10.07;;;19.10;99.90;;;;;;5046216;28;20200;-72
2021/09/10 06:17:06;;;;;;;17.30;9.98;;;19.20;99.90;;;;;;5048608;28;20202;-72
2021/09/10 06:19:33;;;;;;;13.98;10.00;;;19.30;99.90;;;;;;5044745;28;20703;-72
2021/09/10 06:22:00;;;;;;;14.05;9.65;;;19.30;99.90;;;;;;5051358;28;20214;-72
2021/09/10 06:24:27;;;;;;;12.30;10.15;;;19.40;99.90;;;;;;5046139;28;20205;-72
2021/09/10 06:26:54;;;;;;;17.38;10.90;;;19.40;99.90;;;;;;5044043;28;20209;-73
2021/09/10 06:29:21;;;;;;;15.60;11.80;;;19.40;99.90;;;;;;5043745;28;20203;-73
2021/09/10 06:31:50;;;;;;;13.20;10.40;;;19.50;99.90;;;;;;5041990;28;20294;-72
2021/09/10 06:34:20;;;;;;;13.55;10.20;;;19.50;99.90;;;;;;5039948;28;20653;-72
2021/09/10 06:36:47;;;;;;;13.10;9.85;;;19.50;99.90;;;;;;5051387;28;20211;-72
2021/09/10 06:39:14;;;;;;;11.75;9.63;;;19.50;99.90;;;;;;5047619;28;20677;-72
2021/09/10 06:41:41;;;;;;;14.32;9.30;;;19.50;99.90;;;;;;5043710;28;20203;-72
2021/09/10 06:44:08;;;;;;;13.85;9.75;;;19.50;99.90;;;;;;5045418;28;20203;-72
2021/09/10 06:46:35;;;;;;;17.83;9.70;;;19.50;99.90;;;;;;5048383;28;20203;-72
2021/09/10 06:49:02;;;;;;;12.57;9.45;;;19.50;99.90;;;;;;5049161;28;20202;-72
2021/09/10 06:51:31;;;;;;;12.45;9.80;;;19.50;99.90;;;;;;5044294;28;20207;-72
2021/09/10 06:53:58;;;;;;;13.73;9.63;;;19.60;99.90;;;;;;5047335;28;20207;-72
2021/09/10 06:56:24;;;;;;;14.60;10.27;;;19.70;99.90;;;;;;5046984;28;20199;-72
2021/09/10 06:58:51;;;;;;;13.30;9.13;;;19.70;99.90;;;;;;5047389;28;20547;-72
2021/09/10 07:01:18;;;;;;;12.07;9.20;;;19.80;99.90;;;;;;5040369;28;20222;-71
2021/09/10 07:03:46;;;;;;;10.98;9.07;;;19.80;99.90;;;;;;5043806;28;20571;-72
2021/09/10 07:06:13;;;;;;;13.57;9.60;;;19.70;99.90;;;;;;5039444;28;20212;-72
2021/09/10 07:08:41;;;;;;;17.83;12.85;;;19.80;99.90;;;;;;5050304;28;20668;-72
2021/09/10 07:11:08;;;;;;;11.48;9.63;;;19.90;99.90;;;;;;5047186;28;20199;-72
2021/09/10 07:13:35;;;;;;;12.05;9.23;;;19.90;99.90;;;;;;5046864;28;20574;-72
2021/09/10 07:16:02;;;;;;;12.68;8.98;;;20.00;99.90;;;;;;5045864;28;20207;-72
2021/09/10 07:18:29;;;;;;;12.32;9.25;;;20.00;99.90;;;;;;5051177;28;20204;-72
2021/09/10 07:20:56;;;;;;;11.35;9.43;;;20.00;99.90;;;;;;5047340;28;20233;-72
2021/09/10 07:23:23;;;;;;;15.07;9.68;;;20.10;99.90;;;;;;5047331;28;20633;-72
2021/09/10 07:25:51;;;;;;;13.48;9.68;;;20.10;99.90;;;;;;5058158;28;20296;-72
2021/09/10 07:28:18;;;;;;;11.43;9.30;;;20.20;99.90;;;;;;5048850;28;20559;-72
2021/09/10 07:30:45;;;;;;;12.40;8.82;;;20.20;99.90;;;;;;5048024;28;20565;-73
2021/09/10 07:33:12;;;;;;;12.60;9.80;;;20.20;99.90;;;;;;5055569;28;20665;-72
2021/09/10 07:35:39;;;;;;;12.40;9.30;;;20.30;99.90;;;;;;5051051;28;20661;-72
2021/09/10 07:38:06;;;;;;;14.32;10.45;;;20.40;99.90;;;;;;5049907;28;20195;-72
2021/09/10 07:40:33;;;;;;;12.38;9.15;;;20.50;99.90;;;;;;5046035;28;20222;-72
2021/09/10 07:43:01;;;;;;;11.60;9.77;;;20.50;99.90;;;;;;5046418;28;20200;-72
2021/09/10 07:45:28;;;;;;;13.00;9.93;;;20.50;99.90;;;;;;5049436;28;20405;-73
2021/09/10 07:47:55;;;;;;;12.68;9.73;;;20.70;99.90;;;;;;5048765;28;20247;-73
2021/09/10 07:50:22;;;;;;;12.50;8.73;;;20.80;99.90;;;;;;5047568;28;20203;-73
2021/09/10 07:52:48;;;;;;;14.70;10.52;;;20.70;99.90;;;;;;5054113;28;20202;-73
2021/09/10 07:55:15;;;;;;;16.05;9.63;;;21.00;99.90;;;;;;5042430;28;20203;-72
2021/09/10 07:57:42;;;;;;;11.95;9.07;;;21.00;99.90;;;;;;5049686;28;20199;-73
2021/09/10 08:00:11;;;;;;;13.38;9.23;;;21.10;99.90;;;;;;5047438;28;20305;-73
2021/09/10 08:02:38;;;;;;;13.70;9.45;;;21.20;99.90;;;;;;5044915;28;20206;-73
2021/09/10 08:05:06;;;;;;;12.80;9.65;;;21.30;99.90;;;;;;5048533;28;20203;-73
2021/09/10 08:07:33;;;;;;;12.98;9.15;;;21.40;99.90;;;;;;5043467;28;20233;-73
2021/09/10 08:10:00;;;;;;;14.75;9.25;;;21.50;99.90;;;;;;5045420;28;20195;-73
2021/09/10 08:12:27;;;;;;;12.93;9.88;;;21.50;99.90;;;;;;5044525;28;20544;-73
2021/09/10 08:14:54;;;;;;;13.90;9.20;;;21.60;99.90;;;;;;5052744;28;20206;-73
2021/09/10 08:17:22;;;;;;;15.05;11.55;;;21.70;99.90;;;;;;5049737;28;20274;-73
2021/09/10 08:19:50;;;;;;;12.95;10.05;;;21.70;99.90;;;;;;5044832;28;20312;-73
2021/09/10 08:22:17;;;;;;;11.70;9.27;;;21.80;99.90;;;;;;5048511;28;20231;-73
2021/09/10 08:24:47;;;;;;;11.75;9.25;;;21.80;99.90;;;;;;5047411;28;20207;-73
2021/09/10 08:27:14;;;;;;;11.95;8.82;;;21.80;99.90;;;;;;5053974;28;20226;-73
2021/09/10 08:29:41;;;;;;;11.07;9.20;;;22.10;99.90;;;;;;5048280;28;20201;-73
2021/09/10 08:32:08;;;;;;;9.07;7.97;;;22.20;99.90;;;;;;5047810;28;20206;-73
2021/09/10 08:34:37;;;;;;;10.63;8.00;;;22.40;99.90;;;;;;5049780;28;20567;-73
2021/09/10 08:37:04;;;;;;;11.52;8.90;;;22.40;99.90;;;;;;5046539;28;20593;-73
2021/09/10 08:39:31;;;;;;;10.23;8.18;;;22.50;99.90;;;;;;5047795;28;20585;-73
2021/09/10 08:41:58;;;;;;;10.95;8.65;;;22.50;99.90;;;;;;5044661;28;20208;-73
2021/09/10 08:44:27;;;;;;;9.68;8.30;;;22.40;99.90;;;;;;5051726;28;20206;-73
2021/09/10 08:46:55;;;;;;;12.88;8.70;;;22.40;99.90;;;;;;5046678;28;20584;-73
2021/09/10 08:49:22;;;;;;;11.98;9.05;;;22.60;99.90;;;;;;5046525;28;20217;-73
2021/09/10 08:51:50;;;;;;;11.85;8.63;;;22.70;99.90;;;;;;5046386;28;20302;-73
2021/09/10 08:54:18;;;;;;;12.57;9.13;;;22.70;99.90;;;;;;5045695;28;20681;-73
2021/09/10 08:56:45;;;;;;;12.40;8.55;;;22.70;99.90;;;;;;5053350;28;20737;-73
2021/09/10 08:59:16;;;;;;;12.52;8.35;;;22.70;99.90;;;;;;5049382;28;20241;-73
2021/09/10 09:01:50;;;;;;;9.27;7.60;;;22.60;99.90;;;;;;5050115;28;20214;-73
2021/09/10 09:04:17;;;;;;;9.25;8.13;;;22.80;99.90;;;;;;5049861;28;20558;-73
2021/09/10 09:06:46;;;;;;;11.20;8.35;;;22.90;99.90;;;;;;5052848;28;20685;-73
2021/09/10 09:09:15;;;;;;;9.88;7.57;;;22.80;99.90;;;;;;5049276;28;20206;-73
2021/09/10 09:11:41;;;;;;;10.93;8.13;;;23.00;99.90;;;;;;5052857;28;20199;-74
2021/09/10 09:14:08;;;;;;;10.48;8.63;;;22.80;99.90;;;;;;5052539;28;20199;-73
2021/09/10 09:16:38;;;;;;;12.30;9.00;;;23.00;99.90;;;;;;5053294;28;20207;-74
2021/09/10 09:19:07;;;;;;;12.07;8.52;;;23.20;99.90;;;;;;5047709;28;20289;-74
2021/09/10 09:21:36;;;;;;;11.82;9.18;;;23.50;99.90;;;;;;5047220;28;20600;-74
2021/09/10 09:24:19;;;;;;;11.35;8.05;;;23.80;99.90;;;;;;5047173;28;20582;-74
2021/09/10 09:26:49;;;;;;;11.55;8.68;;;24.00;99.90;;;;;;5043636;28;20252;-74
2021/09/10 09:29:18;;;;;;;14.00;9.70;;;23.90;99.90;;;;;;5039805;28;20208;-74
2021/09/10 09:31:55;;;;;;;17.02;8.75;;;23.80;99.90;;;;;;5050744;28;20203;-74
2021/09/10 09:34:44;;;;;;;12.07;8.77;;;23.60;99.90;;;;;;5043395;28;20203;-74
2021/09/10 09:37:12;;;;;;;15.43;8.77;;;23.50;99.90;;;;;;5041950;28;20206;-74
2021/09/10 09:39:54;;;;;;;17.08;9.00;;;23.50;99.90;;;;;;5048884;28;20233;-74
2021/09/10 09:42:26;;;;;;;10.73;8.40;;;23.50;99.90;;;;;;5046328;28;20207;-74
2021/09/10 09:45:09;;;;;;;10.95;8.70;;;23.50;99.90;;;;;;5040534;28;20217;-74
2021/09/10 09:47:36;;;;;;;12.00;8.43;;;23.40;99.90;;;;;;5043295;28;20244;-74
2021/09/10 09:50:07;;;;;;;15.45;10.18;;;23.40;99.90;;;;;;5042280;28;20506;-74
2021/09/10 09:52:34;;;;;;;12.50;9.65;;;23.40;99.90;;;;;;5040364;28;20214;-74
2021/09/10 09:55:03;;;;;;;12.40;9.43;;;23.40;99.90;;;;;;5042286;28;20571;-74
2021/09/10 09:57:31;;;;;;;14.38;10.77;;;23.40;99.90;;;;;;5038403;28;20215;-74
2021/09/10 10:00:01;;;;;;;15.10;11.05;;;23.40;99.90;;;;;;5044642;28;20207;-74
2021/09/10 10:02:37;;;;;;;16.23;12.02;;;23.30;99.90;;;;;;5117860;27;20596;-75
2021/09/10 10:05:06;;;;;;;17.05;11.90;;;23.30;99.90;;;;;;5108273;28;20197;-75
2021/09/10 10:07:43;;;;;;;15.15;11.68;;;23.50;99.90;;;;;;5111897;27;20662;-74
2021/09/10 10:10:13;;;;;;;14.13;10.55;;;24.00;99.90;;;;;;5139776;27;20237;-75
2021/09/10 10:12:42;;;;;;;15.00;10.70;;;24.60;99.90;;;;;;5109940;28;20207;-75
2021/09/10 10:15:23;;;;;;;14.73;10.77;;;24.80;99.90;;;;;;5104762;28;20237;-75
2021/09/10 10:17:52;;;;;;;12.77;9.88;;;24.60;99.90;;;;;;5104214;28;20201;-75
2021/09/10 10:20:52;;;;;;;15.23;10.45;;;23.90;99.90;;;;;;5104300;28;20209;-75
2021/09/10 10:23:55;;;;;;;14.38;10.10;;;23.80;99.90;;;;;;5102469;28;20205;-75
2021/09/10 10:26:39;;;;;;;14.32;11.18;;;23.60;99.90;;;;;;5091690;28;20551;-74
2021/09/10 10:29:09;;;;;;;13.48;10.35;;;23.50;99.90;;;;;;5103710;27;20209;-74
2021/09/10 10:32:07;;;;;;;15.82;11.18;;;23.40;99.90;;;;;;5101671;28;20221;-74
2021/09/10 10:34:37;;;;;;;17.35;12.55;;;23.40;99.90;;;;;;5043749;28;20286;-75
2021/09/10 10:37:37;;;;;;;16.63;11.38;;;23.40;99.90;;;;;;5090881;28;20240;-75
2021/09/10 10:40:29;;;;;;;13.32;10.65;;;23.30;99.90;;;;;;5107049;28;20210;-75
2021/09/10 10:42:59;;;;;;;14.65;10.40;;;23.30;99.90;;;;;;5125808;27;20686;-75
2021/09/10 10:46:12;;;;;;;14.15;10.75;;;23.10;99.90;;;;;;5123728;28;20223;-75
2021/09/10 10:48:53;;;;;;;12.38;9.98;;;23.20;99.90;;;;;;5106781;28;20209;-75
2021/09/10 10:51:51;;;;;;;14.05;10.60;;;23.10;99.90;;;;;;5112600;27;20605;-75
2021/09/10 10:54:26;;;;;;;15.18;10.90;;;23.00;99.90;;;;;;5104901;28;20624;-75
2021/09/10 10:56:53;;;;;;;13.32;10.68;;;23.10;99.90;;;;;;5108584;27;20790;-76
2021/09/10 10:59:33;;;;;;;16.55;11.80;;;23.10;99.90;;;;;;5109039;27;20201;-75
2021/09/10 11:02:34;;;;;;;13.95;10.50;;;23.10;99.90;;;;;;5107777;28;20224;-75
2021/09/10 11:05:06;;;;;;;15.70;11.63;;;23.10;99.90;;;;;;5083034;28;20742;-76
2021/09/10 11:07:36;;;;;;;16.17;11.88;;;23.00;99.90;;;;;;5078402;28;20625;-75
2021/09/10 11:10:05;;;;;;;16.17;10.93;;;23.00;99.90;;;;;;5091711;28;20224;-75
2021/09/10 11:12:33;;;;;;;15.20;11.23;;;22.90;99.90;;;;;;5103101;27;20201;-75
2021/09/10 11:15:00;;;;;;;14.88;11.65;;;22.90;99.90;;;;;;5098638;28;20230;-75
2021/09/10 11:17:28;;;;;;;13.45;11.10;;;22.90;99.90;;;;;;5091863;28;20205;-75
2021/09/10 11:19:57;;;;;;;13.23;11.02;;;22.90;99.90;;;;;;5095336;28;20250;-75
2021/09/10 11:22:24;;;;;;;15.70;11.32;;;22.90;99.90;;;;;;5093075;28;20879;-75
2021/09/10 11:25:07;;;;;;;14.70;11.57;;;23.00;99.90;;;;;;5092445;28;20216;-75
2021/09/10 11:27:38;;;;;;;15.25;11.20;;;23.00;99.90;;;;;;5091228;28;20202;-75
2021/09/10 11:30:06;;;;;;;14.80;11.25;;;22.90;99.90;;;;;;5096902;28;20215;-75
2021/09/10 11:32:33;;;;;;;14.75;10.98;;;23.00;99.90;;;;;;5099274;28;20201;-75
2021/09/10 11:35:00;;;;;;;16.60;11.50;;;22.90;99.90;;;;;;5091761;28;20209;-75
2021/09/10 11:37:28;;;;;;;14.38;10.82;;;23.00;99.90;;;;;;5090714;28;20565;-75
2021/09/10 11:39:58;;;;;;;15.10;10.45;;;23.00;99.90;;;;;;5094839;28;20205;-75
2021/09/10 11:42:35;;;;;;;15.88;10.82;;;22.90;99.90;;;;;;5093563;28;20225;-75
2021/09/10 11:45:07;;;;;;;12.77;9.95;;;23.00;99.90;;;;;;5092155;28;20215;-75
2021/09/10 11:47:34;;;;;;;12.38;9.77;;;23.20;99.90;;;;;;5090042;28;20209;-77
2021/09/10 11:50:04;;;;;;;12.85;10.32;;;23.30;99.90;;;;;;5090904;28;20559;-72
2021/09/10 11:52:33;;;;;;;15.18;10.38;;;23.30;99.90;;;;;;5096828;28;20604;-72
2021/09/10 11:55:13;;;;;;;14.10;10.90;;;23.30;99.90;;;;;;5099058;28;20200;-72
2021/09/10 11:57:41;;;;;;;16.60;10.70;;;23.30;99.90;;;;;;5094037;28;20716;-73
2021/09/10 12:00:10;;;;;;;14.35;10.80;;;23.30;99.90;;;;;;5092319;28;20204;-73
2021/09/10 12:02:38;;;;;;;14.18;10.65;;;23.20;99.90;;;;;;5094599;28;20586;-72
2021/09/10 12:05:06;;;;;;;12.57;10.15;;;23.10;99.90;;;;;;5093688;28;20198;-72
2021/09/10 12:07:35;;;;;;;13.60;10.30;;;23.10;99.90;;;;;;5091963;28;20747;-73
2021/09/10 12:10:02;;;;;;;13.40;10.35;;;23.10;99.90;;;;;;5094952;28;20226;-73
2021/09/10 12:12:30;;;;;;;14.52;9.90;;;23.10;99.90;;;;;;5092895;28;20190;-73
2021/09/10 12:15:02;;;;;;;15.32;11.20;;;23.10;99.90;;;;;;5095400;28;20288;-73
2021/09/10 12:17:33;;;;;;;13.13;10.85;;;23.00;99.90;;;;;;5092074;28;20205;-72
2021/09/10 12:20:09;;;;;;;13.95;11.20;;;23.00;99.90;;;;;;5094368;28;20205;-73
2021/09/10 12:22:42;;;;;;;15.38;11.82;;;23.00;99.90;;;;;;5094780;28;20223;-71
2021/09/10 12:25:26;;;;;;;14.65;11.32;;;22.80;99.90;;;;;;5097638;28;20209;-71
2021/09/10 12:27:57;;;;;;;14.93;11.25;;;22.70;99.90;;;;;;5089055;28;20232;-71
2021/09/10 12:30:26;;;;;;;15.90;11.65;;;22.50;99.90;;;;;;5094801;28;20205;-71
2021/09/10 12:32:54;;;;;;;15.80;11.63;;;22.30;99.90;;;;;;5092163;28;20185;-72
2021/09/10 12:35:21;;;;;;;11.07;8.90;;;22.30;99.90;;;;;;5090029;28;20197;-71
2021/09/10 12:37:57;;;;;;;14.55;9.85;;;22.10;99.90;;;;;;5096500;28;20557;-71
2021/09/10 12:40:25;;;;;;;14.00;10.15;;;22.10;99.90;;;;;;5088913;28;20601;-71
2021/09/10 12:42:52;;;;;;;12.25;9.68;;;22.10;99.90;;;;;;5095007;28;20224;-72
2021/09/10 12:45:20;;;;;;;12.90;9.13;;;22.00;99.90;;;;;;5090683;28;20370;-71